Grand Rapids, MN

11:10 PM CST on February 11, 2016 (GMT -0600)
Southwest | | Change Station
CLOSE
Current Station
Personal Weather Station
Location: Grand Rapids, MN
Elevation: 1322 ft
Nearby Weather Stations
Active Advisory: Wind Chill Advisory

Elev 1322 ft 47.23 °N, 93.54 °W | Updated 1 minute ago

Overcast
Overcast
7.3 °F
Feels Like -3 °F
N
6.0
Wind Variable Wind from West
Gusts 6.0 mph

Today
High -- | Low -- °F
--% Chance of Precip.
Yesterday
High -- | Low -- °F
Precip. -- in
Pressure 30.14 in
Visibility 10.0 miles
Clouds Overcast 3300 ft
Windchill -3 °F
Dew Point 2 °F
Humidity 79%
Rainfall 0.00 in
Snow Depth Not available.
7:26 AM 5:31 PM
Waxing Crescent, 17% visible
METAR KGPZ 120455Z AUTO 30012G15KT 10SM OVC033 M14/M17 A3014 RMK AO1
Pressure 30.14 in
Visibility 10.0 miles
Clouds Overcast 3300 ft
Windchill -3 °F
Dew Point 2 °F
Humidity 79%
Rainfall 0.00 in
Snow Depth Not available.
7:26 AM 5:31 PM
Waxing Crescent, 17% visible
METAR KGPZ 120455Z AUTO 30012G15KT 10SM OVC033 M14/M17 A3014 RMK AO1

10-Day Weather Forecast

Almanac

Astronomy

Feb. 11, 2016 Rise Set
Actual Time
Civil Twilight
Nautical Twilight
Astronomical Twilight
Moon
Length of Visible Light
Length of Day
Tomorrow will be .
, % of the Moon is Illuminated

Today's Extremes

State Highs State Lows

Community

WunderPhotos

Upload Photos

1,892,265 photos uploaded!

WunderBlog® & News

Nearby

Air Quality

  Air Quality AQ Index Pollutant
Not available.

Snow Depth

Station Depth Elevation

Earthquake Activity

City Distance Mag. Time & Date
Minimum magnitude displayed is 2.5.

Coastal Water Temperatures

Place Temperature

Stations

Nearby Weather Stations

Station Location Temp. Windchill Dew Point Humidity Wind Precip. Elev Updated Type
                   

Watches & Warnings

Wind Chill Advisory
Issued: 7:40 PM CST Feb. 11, 2016 – National Weather Service

... Wind Chill Advisory remains in effect from midnight tonight to
noon CST Friday...

* wind chill values... 25 below to 35 below zero.

* Sustained winds... northwest 10 to 15 mph.

* Wind gusts... 20 to 25 mph... especially late tonight and Friday
morning.

* Frostbite time... 20 to 30 minutes on exposed skin.

Precautionary/preparedness actions...

A Wind Chill Advisory means that very cold air and winds will
combine to generate very cold wind chills. This may result in
hypothermia... and frost bite is possible if exposed skin is not
covered. If you venture outdoors... make sure you wear a hat and
gloves... and cover exposed skin exposed to the wind.